Time;durP1;ratioP1;P1;durP2;ratioP2;P2;SDS_P1;SDS_P2;PMS_P1;PMS_P2;Temp;Humidity;BMP_temperature;BMP_pressure;BME280_temperature;BME280_humidity;BME280_pressure;Samples;Min_cycle;Max_cycle;Signal;HPM_P1;HPM_P2
2023/05/15 00:01:15;;;;;;;2.70;1.40;;;10.30;99.90;;;;;;5092314;28;20054;-70
2023/05/15 00:03:40;;;;;;;;;;;9.80;99.90;;;;;;5094239;28;20122;-70
2023/05/15 00:06:06;;;;;;;0.88;0.85;;;9.80;99.90;;;;;;5110635;28;20056;-70
2023/05/15 00:08:32;;;;;;;12.63;2.00;;;11.30;99.90;;;;;;5111572;28;20043;-70
2023/05/15 00:10:57;;;;;;;1.25;1.17;;;9.80;99.90;;;;;;5112314;28;20130;-70
2023/05/15 00:13:23;;;;;;;3.45;0.82;;;11.20;99.90;;;;;;5112436;28;20449;-69
2023/05/15 00:15:49;;;;;;;0.75;0.75;;;9.90;99.90;;;;;;5112406;28;20134;-69
2023/05/15 00:18:15;;;;;;;;;;;11.10;99.90;;;;;;5112842;28;20048;-69
2023/05/15 00:20:40;;;;;;;2.45;2.25;;;11.30;99.90;;;;;;5112431;28;19973;-70
2023/05/15 00:23:06;;;;;;;1.63;1.45;;;9.80;99.90;;;;;;5112323;28;20469;-71
2023/05/15 00:25:32;;;;;;;2.10;1.98;;;9.80;99.90;;;;;;5110931;28;20039;-71
2023/05/15 00:27:57;;;;;;;2.28;2.08;;;11.10;99.90;;;;;;5112393;28;20096;-71
2023/05/15 00:30:23;;;;;;;3.97;2.05;;;11.20;99.90;;;;;;5112328;28;20044;-70
2023/05/15 00:32:49;;;;;;;3.10;0.98;;;10.30;99.90;;;;;;5111043;28;20047;-71
2023/05/15 00:35:14;;;;;;;2.50;1.88;;;9.90;99.90;;;;;;5112114;28;20043;-69
2023/05/15 00:37:40;;;;;;;1.65;1.55;;;11.00;99.90;;;;;;5110938;28;20056;-69
2023/05/15 00:40:10;;;;;;;2.08;1.90;;;11.20;99.90;;;;;;5112036;28;20090;-69
2023/05/15 00:42:37;;;;;;;3.13;2.78;;;9.50;99.90;;;;;;5111329;28;20055;-69
2023/05/15 00:45:04;;;;;;;;;;;10.20;99.90;;;;;;5112619;28;20173;-69
2023/05/15 00:47:32;;;;;;;2.88;1.25;;;10.20;99.90;;;;;;5112124;28;19967;-70
2023/05/15 00:50:00;;;;;;;1.90;1.75;;;9.40;99.90;;;;;;5112057;28;20058;-70
2023/05/15 00:52:26;;;;;;;2.47;0.73;;;11.10;99.90;;;;;;5111924;28;20127;-70
2023/05/15 00:54:51;;;;;;;6.93;4.35;;;9.60;99.90;;;;;;5111584;28;20139;-70
2023/05/15 00:57:19;;;;;;;1.00;1.00;;;9.40;99.90;;;;;;5111859;28;20056;-69
2023/05/15 00:59:45;;;;;;;1.95;1.75;;;9.80;99.90;;;;;;5112079;28;20047;-70
2023/05/15 01:02:12;;;;;;;1.33;1.23;;;11.00;99.90;;;;;;5110947;28;20055;-70
2023/05/15 01:04:38;;;;;;;1.75;1.60;;;9.50;99.90;;;;;;5111872;28;20528;-70
2023/05/15 01:07:03;;;;;;;5.50;2.38;;;9.30;99.90;;;;;;5111833;28;20048;-70
2023/05/15 01:09:31;;;;;;;1.00;1.00;;;10.70;99.90;;;;;;5112125;28;20104;-70
2023/05/15 01:11:59;;;;;;;1.50;1.45;;;11.50;99.90;;;;;;5111991;28;20127;-70
2023/05/15 01:14:26;;;;;;;2.58;2.35;;;9.50;99.90;;;;;;5111890;28;20090;-70
2023/05/15 01:16:51;;;;;;;2.53;1.58;;;9.40;99.90;;;;;;5111992;28;20130;-70
2023/05/15 01:19:17;;;;;;;1.45;1.35;;;10.90;99.90;;;;;;5111961;28;20130;-70
2023/05/15 01:22:13;;;;;;;2.25;1.92;;;9.50;99.90;;;;;;5115690;28;20039;-70
2023/05/15 01:25:20;;;;;;;3.30;1.92;;;10.30;99.90;;;;;;5100372;28;20093;-69
2023/05/15 01:27:55;;;;;;;1.90;1.73;;;9.20;99.90;;;;;;5115319;28;20483;-69
2023/05/15 01:30:33;;;;;;;2.28;1.90;;;10.40;99.90;;;;;;5115356;28;20460;-69
2023/05/15 01:33:16;;;;;;;2.70;1.50;;;9.30;99.90;;;;;;5115552;28;20055;-71
2023/05/15 01:36:11;;;;;;;2.00;1.65;;;9.30;99.90;;;;;;5115413;28;20123;-71
2023/05/15 01:38:55;;;;;;;4.13;2.38;;;9.10;99.90;;;;;;5115126;28;20052;-71
2023/05/15 01:41:28;;;;;;;1.25;1.15;;;10.50;99.90;;;;;;5115382;28;20051;-70
2023/05/15 01:44:16;;;;;;;2.05;1.92;;;8.40;99.90;;;;;;5115120;28;20084;-68
2023/05/15 01:46:45;;;;;;;3.88;1.52;;;10.50;99.90;;;;;;5109204;28;20055;-68
2023/05/15 01:49:15;;;;;;;1.83;1.35;;;10.00;99.90;;;;;;5115247;28;20131;-68
2023/05/15 01:51:43;;;;;;;3.03;1.48;;;10.10;99.90;;;;;;5115183;28;20048;-70
2023/05/15 01:54:10;;;;;;;2.72;1.85;;;10.40;99.90;;;;;;5113663;28;20059;-68
2023/05/15 01:56:39;;;;;;;1.45;1.35;;;9.30;99.90;;;;;;5115010;27;20055;-69
2023/05/15 01:59:06;;;;;;;1.60;1.50;;;10.60;99.90;;;;;;5114841;28;20044;-69
2023/05/15 02:01:32;;;;;;;2.70;1.85;;;10.20;99.90;;;;;;5114723;28;20507;-68
2023/05/15 02:04:00;;;;;;;1.00;1.00;;;8.80;99.90;;;;;;5114864;28;20044;-70
2023/05/15 02:06:27;;;;;;;1.48;1.15;;;9.10;99.90;;;;;;5113672;28;20059;-70
2023/05/15 02:08:57;;;;;;;2.17;1.98;;;10.40;99.90;;;;;;5113754;28;20176;-70
2023/05/15 02:11:23;;;;;;;1.38;1.27;;;8.80;99.90;;;;;;5114550;28;20506;-70
2023/05/15 02:13:50;;;;;;;6.22;1.83;;;9.90;99.90;;;;;;5114464;28;20048;-69
2023/05/15 02:16:16;;;;;;;1.25;0.93;;;8.70;99.90;;;;;;5114739;28;20067;-70
2023/05/15 02:18:41;;;;;;;1.73;1.63;;;8.80;99.90;;;;;;5114851;28;20047;-69
2023/05/15 02:21:07;;;;;;;1.05;1.05;;;9.90;99.90;;;;;;5114710;28;20051;-70
2023/05/15 02:23:33;;;;;;;1.10;1.00;;;8.90;99.90;;;;;;5113220;28;20052;-70
2023/05/15 02:26:12;;;;;;;;;;;10.90;99.90;;;;;;5114720;28;20609;-69
2023/05/15 02:28:53;;;;;;;2.70;1.95;;;10.20;99.90;;;;;;5112975;28;19923;-70
2023/05/15 02:31:44;;;;;;;2.13;1.90;;;10.40;99.90;;;;;;5113351;28;20448;-70
2023/05/15 02:34:35;;;;;;;1.52;1.42;;;9.40;99.90;;;;;;5113889;28;20050;-71
2023/05/15 02:37:03;;;;;;;3.88;1.98;;;10.80;99.90;;;;;;5114010;27;20058;-69
2023/05/15 02:39:31;;;;;;;1.45;1.35;;;10.40;99.90;;;;;;5114327;28;20047;-70
2023/05/15 02:41:58;;;;;;;1.77;1.67;;;9.30;99.90;;;;;;5114146;28;20096;-70
2023/05/15 02:44:25;;;;;;;1.95;1.85;;;9.80;99.90;;;;;;5114046;27;20044;-69
2023/05/15 02:46:52;;;;;;;1.75;1.38;;;8.80;99.90;;;;;;5096040;28;20444;-69
2023/05/15 02:49:19;;;;;;;2.75;1.35;;;8.70;99.90;;;;;;5113840;28;20044;-70
2023/05/15 02:51:45;;;;;;;0.82;0.80;;;10.40;99.90;;;;;;5112826;28;20083;-69
2023/05/15 02:54:11;;;;;;;1.88;1.77;;;10.00;99.90;;;;;;5113722;28;20091;-70
2023/05/15 02:56:37;;;;;;;;;;;8.90;99.90;;;;;;5114328;28;20087;-73
2023/05/15 02:59:02;;;;;;;1.25;1.23;;;9.70;99.90;;;;;;5112743;28;20437;-71
2023/05/15 03:01:28;;;;;;;0.60;0.60;;;10.00;99.90;;;;;;5113796;28;20391;-70
2023/05/15 03:03:54;;;;;;;2.70;1.92;;;10.90;99.90;;;;;;5112558;28;20156;-68
2023/05/15 03:06:19;;;;;;;0.30;0.30;;;9.10;99.90;;;;;;5113480;28;20058;-69
2023/05/15 03:08:45;;;;;;;0.80;0.80;;;9.30;99.90;;;;;;5113763;28;20047;-70
2023/05/15 03:11:11;;;;;;;0.80;0.80;;;10.40;99.90;;;;;;5113726;28;20051;-70
2023/05/15 03:13:36;;;;;;;0.65;0.65;;;9.10;99.90;;;;;;5113839;28;20070;-69
2023/05/15 03:16:02;;;;;;;6.82;1.25;;;10.80;99.90;;;;;;5113617;28;20060;-69
2023/05/15 03:18:28;;;;;;;0.85;0.85;;;9.80;99.90;;;;;;5113260;28;20433;-69
2023/05/15 03:20:53;;;;;;;0.95;0.95;;;9.10;99.90;;;;;;5112541;28;20050;-69
2023/05/15 03:23:19;;;;;;;1.17;0.90;;;10.20;99.90;;;;;;5113504;28;20507;-69
2023/05/15 03:25:45;;;;;;;0.40;0.40;;;10.90;99.90;;;;;;5113204;28;20047;-69
2023/05/15 03:28:11;;;;;;;0.45;0.45;;;10.70;99.90;;;;;;5112905;28;20051;-69
2023/05/15 03:30:36;;;;;;;0.88;0.88;;;9.50;99.90;;;;;;5111763;28;20460;-69
2023/05/15 03:33:02;;;;;;;0.80;0.80;;;11.00;99.90;;;;;;5112720;28;20123;-69
2023/05/15 03:35:29;;;;;;;3.45;1.65;;;11.10;99.90;;;;;;5111311;28;20127;-69
2023/05/15 03:37:55;;;;;;;0.55;0.55;;;11.00;99.90;;;;;;5111793;28;20047;-68
2023/05/15 03:40:20;;;;;;;2.05;1.60;;;11.30;99.90;;;;;;5112789;28;20053;-69
2023/05/15 03:42:46;;;;;;;0.60;0.60;;;9.40;99.90;;;;;;5111510;28;20046;-69
2023/05/15 03:45:12;;;;;;;0.68;0.68;;;9.30;99.90;;;;;;5112558;28;20047;-69
2023/05/15 03:47:37;;;;;;;0.90;0.90;;;10.20;99.90;;;;;;5111119;28;20043;-69
2023/05/15 03:50:04;;;;;;;1.25;1.20;;;8.90;99.90;;;;;;5112362;28;20118;-69
2023/05/15 03:52:29;;;;;;;0.82;0.82;;;9.00;99.90;;;;;;5112552;28;20039;-70
2023/05/15 03:54:55;;;;;;;0.68;0.68;;;10.00;99.90;;;;;;5112134;28;20055;-69
2023/05/15 03:57:21;;;;;;;0.40;0.40;;;7.90;99.90;;;;;;5112408;28;20056;-69
2023/05/15 03:59:46;;;;;;;0.47;0.47;;;10.50;99.90;;;;;;5112322;28;20552;-69
2023/05/15 04:02:12;;;;;;;0.40;0.40;;;10.40;99.90;;;;;;5111193;28;20511;-69
2023/05/15 04:04:38;;;;;;;0.30;0.30;;;10.40;99.90;;;;;;5112118;28;20051;-69
2023/05/15 04:07:05;;;;;;;0.43;0.43;;;10.20;99.90;;;;;;5111355;28;20192;-69
2023/05/15 04:09:30;;;;;;;0.40;0.40;;;8.70;99.90;;;;;;5112290;28;20051;-69
2023/05/15 04:11:56;;;;;;;2.15;1.30;;;10.50;99.90;;;;;;5110858;28;20051;-69
2023/05/15 04:14:22;;;;;;;0.65;0.65;;;10.00;99.90;;;;;;5112077;28;20202;-69
2023/05/15 04:16:47;;;;;;;0.35;0.35;;;8.70;99.90;;;;;;5112068;28;20035;-69
2023/05/15 04:19:13;;;;;;;0.60;0.60;;;10.70;99.90;;;;;;5111943;28;20051;-69
2023/05/15 04:21:38;;;;;;;0.75;0.75;;;10.60;99.90;;;;;;5112162;28;20495;-69
2023/05/15 04:24:06;;;;;;;0.85;0.85;;;10.50;99.90;;;;;;5112124;28;20489;-69
2023/05/15 04:26:32;;;;;;;0.50;0.50;;;8.90;99.90;;;;;;5110936;28;20055;-70
2023/05/15 04:28:58;;;;;;;0.80;0.80;;;10.70;99.90;;;;;;5111947;28;20082;-70
2023/05/15 04:31:26;;;;;;;1.58;1.45;;;9.50;99.90;;;;;;5111891;28;20917;-69
2023/05/15 04:33:51;;;;;;;0.55;0.55;;;9.60;99.90;;;;;;5111940;28;20091;-69
2023/05/15 04:36:17;;;;;;;2.33;0.77;;;9.40;99.90;;;;;;5111972;28;20079;-70
2023/05/15 04:38:43;;;;;;;0.63;0.63;;;9.40;99.90;;;;;;5110834;28;20042;-69
2023/05/15 04:41:08;;;;;;;0.68;0.68;;;11.10;99.90;;;;;;5111917;28;20532;-69
2023/05/15 04:43:34;;;;;;;0.90;0.90;;;11.30;99.90;;;;;;5110794;28;20399;-69
2023/05/15 04:46:00;;;;;;;0.73;0.73;;;10.00;99.90;;;;;;5111947;28;20096;-69
2023/05/15 04:48:26;;;;;;;0.75;0.75;;;11.30;99.90;;;;;;5112025;28;20808;-69
2023/05/15 04:50:51;;;;;;;0.65;0.65;;;11.00;99.90;;;;;;5112192;28;20047;-69
2023/05/15 04:53:17;;;;;;;0.38;0.38;;;9.70;99.90;;;;;;5111067;28;20044;-69
2023/05/15 04:55:42;;;;;;;0.63;0.63;;;11.10;99.90;;;;;;5113973;28;20055;-69
2023/05/15 04:58:08;;;;;;;0.60;0.60;;;9.50;99.90;;;;;;5115076;28;20051;-69
2023/05/15 05:00:34;;;;;;;1.27;1.05;;;10.60;99.90;;;;;;5116100;28;20043;-68
2023/05/15 05:02:59;;;;;;;0.60;0.60;;;10.60;99.90;;;;;;5115885;28;20040;-69
2023/05/15 05:05:25;;;;;;;0.47;0.47;;;11.20;99.90;;;;;;5116163;28;20043;-69
2023/05/15 05:07:51;;;;;;;0.30;0.30;;;10.00;99.90;;;;;;5116285;28;20058;-69
2023/05/15 05:10:17;;;;;;;0.73;0.73;;;10.90;99.90;;;;;;5116200;28;20054;-69
2023/05/15 05:12:42;;;;;;;0.60;0.60;;;10.30;99.90;;;;;;5115897;28;20051;-70
2023/05/15 05:15:09;;;;;;;1.08;1.08;;;11.40;99.90;;;;;;5115752;27;20164;-71
2023/05/15 05:17:34;;;;;;;0.50;0.50;;;11.30;99.90;;;;;;5115698;28;20372;-69
2023/05/15 05:20:00;;;;;;;0.63;0.63;;;10.70;99.90;;;;;;5116011;28;20050;-69
2023/05/15 05:22:26;;;;;;;0.40;0.40;;;11.10;99.90;;;;;;5115751;28;20043;-70
2023/05/15 05:24:51;;;;;;;0.98;0.98;;;10.70;99.90;;;;;;5115482;28;20137;-70
2023/05/15 05:27:17;;;;;;;0.57;0.57;;;11.30;99.90;;;;;;5115561;28;20056;-70
2023/05/15 05:29:43;;;;;;;0.50;0.50;;;9.80;99.90;;;;;;5115474;28;20059;-69
2023/05/15 05:32:08;;;;;;;5.63;1.00;;;10.20;99.90;;;;;;5115297;28;20542;-69
2023/05/15 05:34:34;;;;;;;0.75;0.75;;;11.30;99.90;;;;;;5114306;28;20050;-69
2023/05/15 05:37:00;;;;;;;0.25;0.25;;;10.40;99.90;;;;;;5115503;28;20040;-67
2023/05/15 05:39:25;;;;;;;0.45;0.45;;;10.60;99.90;;;;;;5114028;28;20097;-67
2023/05/15 05:41:51;;;;;;;0.80;0.68;;;11.30;99.90;;;;;;5096995;28;20043;-68
2023/05/15 05:44:17;;;;;;;9.45;1.30;;;10.60;99.90;;;;;;5115150;28;20048;-68
2023/05/15 05:46:44;;;;;;;0.43;0.43;;;10.40;99.90;;;;;;5097819;28;20048;-68
2023/05/15 05:49:10;;;;;;;1.50;1.40;;;10.50;99.90;;;;;;5093700;28;20056;-68
2023/05/15 05:51:35;;;;;;;1.08;0.90;;;10.60;99.90;;;;;;5094692;28;20082;-68
2023/05/15 05:54:01;;;;;;;2.67;1.15;;;10.80;99.90;;;;;;5094565;28;20113;-68
2023/05/15 05:56:27;;;;;;;0.30;0.30;;;10.70;99.90;;;;;;5094209;28;20504;-68
2023/05/15 05:58:53;;;;;;;0.52;0.52;;;10.30;99.90;;;;;;5094516;28;20077;-69
2023/05/15 06:01:19;;;;;;;2.10;0.65;;;10.40;99.90;;;;;;5094395;28;20470;-68
2023/05/15 06:03:45;;;;;;;2.60;0.73;;;10.50;99.90;;;;;;5094546;28;20047;-69
2023/05/15 06:06:11;;;;;;;0.40;0.40;;;10.40;99.90;;;;;;5092049;28;20051;-67
2023/05/15 06:08:36;;;;;;;0.40;0.40;;;11.30;99.90;;;;;;5094463;28;20048;-67
2023/05/15 06:11:03;;;;;;;0.65;0.65;;;10.90;99.90;;;;;;5084267;28;20075;-69
2023/05/15 06:13:28;;;;;;;;;;;10.60;99.90;;;;;;5093350;28;20423;-68
2023/05/15 06:15:54;;;;;;;0.75;0.50;;;10.80;99.90;;;;;;5093399;28;19924;-69
2023/05/15 06:18:21;;;;;;;;;;;11.30;99.90;;;;;;5093421;28;20087;-69
2023/05/15 06:20:46;;;;;;;0.40;0.40;;;11.30;99.90;;;;;;5092906;28;19924;-71
2023/05/15 06:23:12;;;;;;;0.63;0.55;;;11.30;99.90;;;;;;5091382;28;20044;-68
2023/05/15 06:25:38;;;;;;;0.40;0.40;;;11.20;99.90;;;;;;5092618;28;20044;-69
2023/05/15 06:28:04;;;;;;;0.60;0.60;;;11.20;99.90;;;;;;5093078;28;20498;-67
2023/05/15 06:30:29;;;;;;;0.60;0.60;;;11.80;99.90;;;;;;5091616;28;20039;-67
2023/05/15 06:32:55;;;;;;;0.90;0.90;;;11.90;99.90;;;;;;5095145;28;20506;-68
2023/05/15 06:35:22;;;;;;;0.65;0.65;;;11.80;99.90;;;;;;5092689;28;20082;-67
2023/05/15 06:37:49;;;;;;;0.25;0.25;;;11.60;99.90;;;;;;5092476;28;20542;-68
2023/05/15 06:40:15;;;;;;;1.63;1.13;;;11.40;99.90;;;;;;5093221;28;20044;-68
2023/05/15 06:42:41;;;;;;;1.13;0.70;;;11.10;99.90;;;;;;5092187;28;20189;-68
2023/05/15 06:45:07;;;;;;;0.22;0.22;;;11.20;99.90;;;;;;5090414;28;20147;-67
2023/05/15 06:47:33;;;;;;;0.50;0.50;;;11.70;99.90;;;;;;5093528;28;20044;-68
2023/05/15 06:49:58;;;;;;;0.40;0.40;;;11.40;99.90;;;;;;5093335;28;20044;-68
2023/05/15 06:52:24;;;;;;;0.30;0.30;;;11.60;99.90;;;;;;5092875;28;20040;-68
2023/05/15 06:54:50;;;;;;;0.68;0.68;;;11.80;99.90;;;;;;5092817;28;20059;-68
2023/05/15 07:02:34;;;;;;;0.40;0.40;;;11.60;99.90;;;;;;5146522;27;1279061;-69
2023/05/15 07:05:00;;;;;;;0.77;0.30;;;12.20;99.90;;;;;;5169862;27;20447;-69
2023/05/15 07:07:26;;;;;;;0.40;0.40;;;12.20;99.90;;;;;;5170791;27;20424;-68
2023/05/15 07:09:51;;;;;;;0.57;0.55;;;12.10;99.90;;;;;;5171555;27;20060;-67
2023/05/15 07:12:17;;;;;;;0.50;0.50;;;12.10;99.90;;;;;;5171386;27;20052;-68
2023/05/15 07:14:43;;;;;;;0.45;0.45;;;12.40;99.90;;;;;;5171559;27;20165;-68
2023/05/15 07:17:08;;;;;;;0.45;0.45;;;12.30;99.90;;;;;;5152986;27;20050;-69
2023/05/15 07:19:34;;;;;;;4.85;0.63;;;12.40;99.90;;;;;;5171286;27;20379;-70
2023/05/15 07:22:00;;;;;;;0.47;0.47;;;12.10;99.90;;;;;;5171144;27;20039;-68
2023/05/15 07:24:25;;;;;;;0.40;0.40;;;12.50;99.90;;;;;;5171195;27;20034;-69
2023/05/15 07:26:51;;;;;;;0.50;0.50;;;12.80;99.90;;;;;;5171118;27;20073;-73
2023/05/15 07:29:17;;;;;;;;;;;12.40;99.90;;;;;;5153340;27;20411;-70
2023/05/15 07:31:43;;;;;;;0.35;0.35;;;12.70;99.90;;;;;;5171271;27;19972;-69
2023/05/15 07:34:10;;;;;;;0.77;0.77;;;12.30;99.90;;;;;;5171145;27;20466;-69
2023/05/15 07:36:36;;;;;;;0.40;0.40;;;12.20;99.90;;;;;;5170857;27;20115;-68
2023/05/15 07:39:02;;;;;;;0.47;0.47;;;12.00;99.90;;;;;;5170988;27;20050;-66
2023/05/15 07:41:29;;;;;;;0.30;0.30;;;12.00;99.90;;;;;;5159418;27;20074;-66
2023/05/15 07:43:55;;;;;;;0.90;0.77;;;12.20;99.90;;;;;;5170831;27;20149;-66
2023/05/15 07:46:21;;;;;;;1.25;0.75;;;12.60;99.90;;;;;;5170484;27;20172;-66
2023/05/15 07:48:46;;;;;;;0.38;0.38;;;12.40;99.90;;;;;;5170057;27;20049;-66
2023/05/15 07:51:12;;;;;;;0.38;0.38;;;12.60;99.90;;;;;;5170430;27;20039;-67
2023/05/15 07:53:38;;;;;;;0.30;0.30;;;12.40;99.90;;;;;;5170491;27;20046;-67
2023/05/15 07:56:04;;;;;;;0.75;0.75;;;12.50;99.90;;;;;;5150647;27;20092;-68
2023/05/15 07:58:29;;;;;;;;;;;12.70;99.90;;;;;;5170592;27;20539;-66
2023/05/15 08:00:55;;;;;;;0.63;0.63;;;12.80;99.90;;;;;;5151668;27;19918;-66
2023/05/15 08:03:21;;;;;;;0.30;0.30;;;12.50;99.90;;;;;;5169804;27;20158;-66
2023/05/15 08:05:46;;;;;;;0.30;0.30;;;12.70;99.90;;;;;;5170170;27;20081;-68
2023/05/15 08:08:13;;;;;;;0.43;0.43;;;12.70;99.90;;;;;;5170197;27;20481;-67
2023/05/15 08:10:39;;;;;;;0.50;0.50;;;12.80;99.90;;;;;;5168948;27;20046;-67
2023/05/15 08:13:04;;;;;;;0.32;0.32;;;12.60;99.90;;;;;;5161108;27;20050;-67
2023/05/15 08:15:30;;;;;;;0.60;0.60;;;12.40;99.90;;;;;;5156091;27;20078;-67
2023/05/15 08:17:55;;;;;;;;;;;12.40;99.90;;;;;;5156074;27;20104;-66
2023/05/15 08:20:21;;;;;;;0.77;0.50;;;12.70;99.90;;;;;;5155753;27;19918;-67
2023/05/15 08:22:47;;;;;;;0.93;0.50;;;12.90;99.90;;;;;;5136821;27;21039;-67
2023/05/15 08:25:12;;;;;;;;;;;12.60;99.90;;;;;;5154208;27;20453;-67
2023/05/15 08:27:38;;;;;;;0.57;0.57;;;12.80;99.90;;;;;;5155489;27;20293;-66
2023/05/15 08:30:05;;;;;;;2.10;0.85;;;12.60;99.90;;;;;;5155601;27;20122;-69
2023/05/15 08:32:30;;;;;;;0.40;0.40;;;13.20;99.90;;;;;;5155563;27;20042;-70
2023/05/15 08:34:56;;;;;;;1.00;1.00;;;12.90;99.90;;;;;;5137222;27;20050;-67
2023/05/15 08:37:22;;;;;;;0.40;0.40;;;13.30;99.90;;;;;;5155391;27;20046;-66
2023/05/15 08:39:48;;;;;;;0.30;0.30;;;13.70;99.90;;;;;;5155013;27;20047;-67
2023/05/15 08:42:38;;;;;;;0.30;0.30;;;13.60;99.90;;;;;;5136799;27;20038;-69
2023/05/15 08:45:06;;;;;;;0.40;0.40;;;13.60;99.90;;;;;;5137071;27;20082;-69
2023/05/15 08:47:37;;;;;;;0.30;0.30;;;13.40;99.90;;;;;;5155285;27;20039;-68
2023/05/15 08:50:10;;;;;;;0.30;0.30;;;13.70;99.90;;;;;;5155147;27;20121;-68
2023/05/15 08:52:37;;;;;;;0.30;0.30;;;13.70;99.90;;;;;;5155070;27;20099;-67
2023/05/15 08:55:03;;;;;;;0.32;0.32;;;13.80;99.90;;;;;;5155239;27;20038;-69
2023/05/15 08:57:30;;;;;;;4.88;1.48;;;13.80;99.90;;;;;;5137213;27;20050;-66
2023/05/15 08:59:57;;;;;;;0.70;0.70;;;14.10;99.90;;;;;;5155522;27;20054;-66
2023/05/15 09:02:26;;;;;;;0.55;0.55;;;14.20;99.90;;;;;;5154333;27;20521;-66
2023/05/15 09:04:52;;;;;;;0.25;0.25;;;14.00;99.90;;;;;;5154870;27;20490;-68
2023/05/15 09:07:19;;;;;;;0.30;0.30;;;14.40;99.90;;;;;;5143057;27;20054;-67
2023/05/15 09:09:46;;;;;;;0.30;0.30;;;14.30;99.90;;;;;;5144418;27;20054;-68
2023/05/15 09:12:14;;;;;;;0.30;0.30;;;14.50;99.90;;;;;;5154997;27;20035;-68
2023/05/15 09:14:41;;;;;;;0.30;0.30;;;14.00;99.90;;;;;;5154699;27;20050;-67
2023/05/15 09:17:10;;;;;;;0.93;0.90;;;14.30;99.90;;;;;;5154300;27;20053;-68
2023/05/15 09:19:37;;;;;;;0.40;0.40;;;14.20;99.90;;;;;;5154377;27;20086;-71
2023/05/15 09:22:22;;;;;;;0.57;0.57;;;14.40;99.90;;;;;;5136165;27;20146;-68
2023/05/15 09:24:50;;;;;;;0.63;0.50;;;14.40;99.90;;;;;;5152828;27;20043;-67
2023/05/15 09:27:16;;;;;;;0.43;0.43;;;14.30;99.90;;;;;;5154678;27;20043;-68
2023/05/15 09:29:42;;;;;;;2.13;0.68;;;14.90;99.90;;;;;;5154308;27;20054;-68
2023/05/15 09:32:11;;;;;;;;;;;14.80;99.90;;;;;;5154510;27;20103;-70
2023/05/15 09:34:39;;;;;;;0.20;0.20;;;14.70;99.90;;;;;;5154441;27;19923;-68
2023/05/15 09:37:07;;;;;;;0.32;0.32;;;15.10;99.90;;;;;;5154484;27;20038;-68
2023/05/15 09:39:39;;;;;;;0.40;0.40;;;14.80;99.90;;;;;;5132438;27;20134;-69
2023/05/15 09:42:08;;;;;;;0.30;0.30;;;14.60;99.90;;;;;;5153020;27;20072;-66
2023/05/15 09:44:34;;;;;;;0.40;0.40;;;14.80;99.90;;;;;;5154378;27;20110;-67
2023/05/15 09:47:00;;;;;;;;;;;14.70;99.90;;;;;;5154987;27;20096;-68
2023/05/15 09:49:29;;;;;;;0.25;0.25;;;14.80;99.90;;;;;;5154584;27;19923;-69
2023/05/15 09:51:58;;;;;;;0.40;0.40;;;15.30;99.90;;;;;;5154448;27;20070;-66
2023/05/15 09:54:26;;;;;;;0.43;0.43;;;15.00;99.90;;;;;;5154368;27;20126;-68
2023/05/15 09:56:52;;;;;;;0.38;0.38;;;14.70;99.90;;;;;;5150288;27;20502;-69
2023/05/15 09:59:21;;;;;;;16.88;0.93;;;15.20;99.90;;;;;;5130799;27;20391;-68
2023/05/15 10:01:49;;;;;;;0.40;0.40;;;15.10;99.90;;;;;;5153851;27;20046;-69
2023/05/15 10:04:15;;;;;;;0.30;0.30;;;15.10;99.90;;;;;;5135330;27;20082;-69
2023/05/15 10:06:48;;;;;;;0.47;0.40;;;15.50;99.90;;;;;;5153809;27;20516;-70
2023/05/15 10:09:14;;;;;;;0.35;0.35;;;15.40;99.90;;;;;;5153749;27;20153;-69
2023/05/15 10:11:44;;;;;;;0.63;0.63;;;15.20;99.90;;;;;;5151517;27;20035;-69
2023/05/15 10:14:12;;;;;;;0.60;0.50;;;14.90;99.90;;;;;;5153211;27;20043;-75
2023/05/15 10:16:39;;;;;;;0.35;0.35;;;15.40;99.90;;;;;;5153151;27;20111;-70
2023/05/15 10:19:10;;;;;;;0.28;0.28;;;15.20;99.90;;;;;;5153010;27;20050;-70
2023/05/15 10:21:37;;;;;;;0.65;0.52;;;15.00;99.90;;;;;;5153008;27;20042;-73
2023/05/15 10:24:04;;;;;;;0.70;0.60;;;15.10;99.90;;;;;;5152567;27;20090;-71
2023/05/15 10:26:30;;;;;;;0.50;0.50;;;14.90;99.90;;;;;;5153007;27;20091;-69
2023/05/15 10:28:56;;;;;;;;;;;15.10;99.90;;;;;;5153497;27;20050;-76
2023/05/15 10:31:23;;;;;;;0.22;0.22;;;15.40;99.90;;;;;;5152887;27;20014;-72
2023/05/15 10:33:50;;;;;;;0.30;0.30;;;15.10;99.90;;;;;;5152816;27;20050;-72
2023/05/15 10:36:18;;;;;;;4.03;2.58;;;14.80;99.90;;;;;;5152610;27;20046;-70
2023/05/15 10:38:45;;;;;;;1.35;0.50;;;14.40;99.90;;;;;;5153630;27;20082;-70
2023/05/15 10:41:13;;;;;;;1.15;0.80;;;15.10;99.90;;;;;;5153889;27;20414;-69
2023/05/15 10:43:40;;;;;;;0.63;0.63;;;15.10;99.90;;;;;;5153836;27;20092;-70
2023/05/15 10:46:07;;;;;;;0.45;0.45;;;14.90;99.90;;;;;;5153751;27;20046;-73
2023/05/15 10:48:34;;;;;;;0.52;0.47;;;14.80;99.90;;;;;;5153874;27;20057;-69
2023/05/15 10:51:00;;;;;;;0.38;0.38;;;14.60;99.90;;;;;;5152511;27;20050;-74
2023/05/15 10:53:26;;;;;;;0.38;0.38;;;15.10;99.90;;;;;;5125845;27;20062;-70
2023/05/15 10:55:52;;;;;;;;;;;15.30;99.90;;;;;;5153551;27;20043;-70
2023/05/15 10:58:25;;;;;;;0.85;0.73;;;15.10;99.90;;;;;;5133680;27;20036;-70
2023/05/15 11:00:50;;;;;;;0.45;0.45;;;14.70;99.90;;;;;;5132487;28;20055;-70
2023/05/15 11:03:34;;;;;;;;;;;15.40;99.90;;;;;;5133250;28;20047;-70
2023/05/15 11:06:11;;;;;;;0.43;0.43;;;15.30;99.90;;;;;;5132982;28;19927;-70
2023/05/15 11:08:38;;;;;;;0.20;0.20;;;15.10;99.90;;;;;;5132991;28;20499;-71
2023/05/15 11:11:04;;;;;;;0.45;0.45;;;15.60;99.90;;;;;;5132806;28;20035;-70
2023/05/15 11:13:48;;;;;;;;;;;14.70;99.90;;;;;;5133145;28;20399;-69
2023/05/15 11:16:52;;;;;;;0.30;0.30;;;15.40;99.90;;;;;;5114464;28;19920;-71
2023/05/15 11:19:38;;;;;;;0.52;0.52;;;15.30;99.90;;;;;;5115851;28;20445;-75
2023/05/15 11:22:07;;;;;;;0.30;0.30;;;15.30;99.90;;;;;;5132903;28;20126;-71
2023/05/15 11:25:13;;;;;;;0.75;0.55;;;15.50;99.90;;;;;;5132512;28;20444;-71
2023/05/15 11:27:40;;;;;;;0.10;0.10;;;15.40;99.90;;;;;;5132706;28;20085;-71
2023/05/15 11:30:16;;;;;;;0.60;0.60;;;15.10;99.90;;;;;;5132560;28;20039;-71
2023/05/15 11:32:50;;;;;;;0.52;0.52;;;15.50;99.90;;;;;;5132633;28;20090;-71
2023/05/15 11:35:29;;;;;;;0.15;0.15;;;15.80;99.90;;;;;;5132645;28;20050;-71
2023/05/15 11:38:02;;;;;;;0.20;0.20;;;15.30;99.90;;;;;;5132769;28;20512;-72
2023/05/15 11:40:29;;;;;;;0.40;0.40;;;15.70;99.90;;;;;;5114355;28;20059;-72
2023/05/15 11:43:15;;;;;;;1.10;0.43;;;15.80;99.90;;;;;;5132647;28;20556;-73
2023/05/15 11:45:42;;;;;;;0.25;0.25;;;15.80;99.90;;;;;;5132366;28;20043;-71
2023/05/15 11:48:12;;;;;;;0.88;0.88;;;15.30;99.90;;;;;;5116221;27;20379;-73
2023/05/15 11:50:37;;;;;;;0.57;0.55;;;15.60;99.90;;;;;;5136445;27;20065;-71
2023/05/15 11:53:06;;;;;;;0.75;0.75;;;15.20;99.90;;;;;;5118193;27;20039;-71
2023/05/15 11:55:33;;;;;;;0.32;0.30;;;15.50;99.90;;;;;;5118144;27;20706;-71
2023/05/15 11:58:00;;;;;;;0.43;0.43;;;15.50;99.90;;;;;;5117488;27;20039;-69
2023/05/15 12:00:26;;;;;;;0.75;0.68;;;15.30;99.90;;;;;;5129422;27;20055;-73
2023/05/15 12:02:52;;;;;;;0.25;0.25;;;15.00;99.90;;;;;;5130777;27;20086;-69
2023/05/15 12:05:17;;;;;;;0.35;0.28;;;14.90;99.90;;;;;;5135915;27;20475;-73
2023/05/15 12:07:43;;;;;;;0.45;0.45;;;14.80;99.90;;;;;;5135761;27;20092;-72
2023/05/15 12:10:11;;;;;;;0.40;0.40;;;14.60;99.90;;;;;;5117469;27;20089;-70
2023/05/15 12:12:41;;;;;;;0.38;0.35;;;14.50;99.90;;;;;;5135415;27;20475;-73
2023/05/15 12:15:12;;;;;;;0.22;0.22;;;15.10;99.90;;;;;;5135310;27;20051;-72
2023/05/15 12:17:39;;;;;;;0.40;0.40;;;14.90;99.90;;;;;;5135543;27;20134;-73
2023/05/15 12:20:11;;;;;;;0.20;0.20;;;14.80;99.90;;;;;;5135457;27;20047;-75
2023/05/15 12:22:43;;;;;;;0.13;0.13;;;15.00;99.90;;;;;;5135300;27;20050;-77
2023/05/15 12:25:10;;;;;;;0.10;0.10;;;15.10;99.90;;;;;;5135068;27;20053;-72
2023/05/15 12:27:38;;;;;;;0.10;0.10;;;15.20;99.90;;;;;;5134340;27;20103;-75
2023/05/15 12:30:05;;;;;;;0.32;0.32;;;15.10;99.90;;;;;;5135041;27;20043;-71
2023/05/15 12:32:33;;;;;;;0.10;0.10;;;15.40;99.90;;;;;;5135211;27;20148;-72
2023/05/15 12:35:00;;;;;;;0.57;0.45;;;15.00;99.90;;;;;;5135156;27;20414;-71
2023/05/15 12:37:26;;;;;;;2.60;0.20;;;15.20;99.90;;;;;;5134966;27;20084;-71
2023/05/15 12:39:58;;;;;;;0.22;0.22;;;15.50;99.90;;;;;;5135326;27;20058;-73
2023/05/15 12:42:25;;;;;;;1.20;0.40;;;15.40;99.90;;;;;;5116862;27;20051;-72
2023/05/15 12:44:54;;;;;;;0.10;0.10;;;15.00;99.90;;;;;;5134677;27;20550;-77
2023/05/15 12:47:25;;;;;;;0.10;0.10;;;15.10;99.90;;;;;;5135189;27;20046;-70
2023/05/15 12:49:57;;;;;;;0.20;0.20;;;15.10;99.90;;;;;;5135265;27;20043;-71
2023/05/15 12:52:26;;;;;;;0.15;0.15;;;15.20;99.90;;;;;;5134847;27;20441;-74
2023/05/15 12:54:52;;;;;;;0.20;0.20;;;14.90;99.90;;;;;;5134899;27;20421;-69
2023/05/15 12:57:19;;;;;;;0.20;0.20;;;15.70;99.90;;;;;;5134824;27;20080;-69
2023/05/15 12:59:45;;;;;;;0.32;0.32;;;15.00;99.90;;;;;;5134358;27;20122;-69
2023/05/15 13:02:12;;;;;;;0.20;0.20;;;15.30;99.90;;;;;;5145281;27;20097;-67